createdAt,value
2022-10-08T00:00:53.746Z,11.60
2022-10-08T00:03:22.609Z,11.50
2022-10-08T00:06:03.274Z,11.50
2022-10-08T00:08:32.334Z,11.40
2022-10-08T00:11:00.841Z,11.40
2022-10-08T00:13:29.780Z,11.40
2022-10-08T00:15:58.377Z,11.40
2022-10-08T00:18:24.949Z,11.40
2022-10-08T00:20:51.973Z,11.40
2022-10-08T00:23:18.510Z,11.50
2022-10-08T00:25:45.262Z,11.40
2022-10-08T00:28:13.735Z,11.50
2022-10-08T00:30:41.565Z,11.50
2022-10-08T00:33:10.164Z,11.50
2022-10-08T00:35:38.942Z,11.50
2022-10-08T00:38:07.301Z,11.50
2022-10-08T00:40:44.691Z,11.50
2022-10-08T00:43:16.017Z,11.60
2022-10-08T00:45:44.898Z,11.70
2022-10-08T00:48:25.436Z,11.80
2022-10-08T00:50:52.218Z,11.90
2022-10-08T00:53:18.802Z,11.90
2022-10-08T00:55:45.370Z,11.80
2022-10-08T00:58:17.010Z,11.80
2022-10-08T01:00:44.229Z,11.70
2022-10-08T01:03:10.953Z,11.60
2022-10-08T01:05:54.986Z,11.60
2022-10-08T01:08:28.229Z,11.60
2022-10-08T01:11:12.548Z,11.50
2022-10-08T01:14:00.308Z,11.50
2022-10-08T01:16:51.445Z,11.50
2022-10-08T01:19:44.007Z,11.50
2022-10-08T01:22:16.285Z,11.50
2022-10-08T01:25:15.661Z,11.60
2022-10-08T01:27:50.438Z,11.60
2022-10-08T01:30:18.886Z,11.70
2022-10-08T01:32:59.680Z,11.80
2022-10-08T01:35:34.525Z,11.80
2022-10-08T01:38:06.944Z,11.90
2022-10-08T01:40:37.069Z,11.90
2022-10-08T01:43:07.133Z,12.00
2022-10-08T01:45:40.516Z,12.00
2022-10-08T01:48:14.940Z,12.00
2022-10-08T01:50:48.670Z,12.10
2022-10-08T01:53:17.329Z,12.10
2022-10-08T01:55:50.677Z,12.20
2022-10-08T01:58:31.693Z,12.20
2022-10-08T02:01:12.003Z,12.30
2022-10-08T02:03:58.570Z,12.40
2022-10-08T02:06:26.212Z,12.40
2022-10-08T02:08:53.141Z,12.40
2022-10-08T02:11:20.705Z,12.40
2022-10-08T02:13:47.345Z,12.40
2022-10-08T02:16:26.080Z,12.50
2022-10-08T02:19:00.977Z,12.40
2022-10-08T02:21:29.490Z,12.50
2022-10-08T02:24:09.658Z,12.50
2022-10-08T02:26:42.462Z,12.50
2022-10-08T02:29:20.669Z,12.50
2022-10-08T02:31:56.217Z,12.50
2022-10-08T02:34:35.093Z,12.50
2022-10-08T02:37:21.260Z,12.50
2022-10-08T02:39:53.539Z,12.50
2022-10-08T02:42:24.205Z,12.50
2022-10-08T02:44:57.561Z,12.50
2022-10-08T02:47:29.131Z,12.50
2022-10-08T02:50:07.441Z,12.50
2022-10-08T02:52:39.719Z,12.40
2022-10-08T02:55:19.158Z,12.50
2022-10-08T02:57:56.852Z,12.50
2022-10-08T03:00:24.117Z,12.50
2022-10-08T03:03:30.096Z,12.40
2022-10-08T03:05:57.698Z,12.50
2022-10-08T03:08:24.635Z,12.50
2022-10-08T03:10:51.414Z,12.50
2022-10-08T03:13:18.817Z,12.40
2022-10-08T03:15:46.992Z,12.40
2022-10-08T03:18:14.387Z,12.40
2022-10-08T03:20:49.380Z,12.40
2022-10-08T03:23:18.004Z,12.40
2022-10-08T03:25:44.908Z,12.40
2022-10-08T03:28:12.160Z,12.50
2022-10-08T03:30:38.770Z,12.50
2022-10-08T03:33:05.392Z,12.40
2022-10-08T03:35:32.094Z,12.40
2022-10-08T03:37:58.686Z,12.40
2022-10-08T03:40:25.225Z,12.40
2022-10-08T03:42:51.937Z,12.40
2022-10-08T03:45:18.660Z,12.40
2022-10-08T03:47:51.089Z,12.30
2022-10-08T03:50:17.924Z,12.30
2022-10-08T03:52:44.871Z,12.30
2022-10-08T03:55:11.660Z,12.30
2022-10-08T03:57:38.222Z,12.20
2022-10-08T04:00:05.517Z,12.20
2022-10-08T04:02:34.907Z,12.20
2022-10-08T04:05:01.624Z,12.20
2022-10-08T04:07:28.170Z,12.20
2022-10-08T04:09:54.696Z,12.20
2022-10-08T04:12:21.238Z,12.20
2022-10-08T04:14:47.766Z,12.20
2022-10-08T04:17:14.357Z,12.20
2022-10-08T04:19:40.987Z,12.20
2022-10-08T04:22:07.562Z,12.20
2022-10-08T04:24:34.106Z,12.20
2022-10-08T04:27:00.644Z,12.20
2022-10-08T04:29:27.199Z,12.10
2022-10-08T04:31:53.747Z,12.00
2022-10-08T04:34:20.286Z,11.90
2022-10-08T04:36:53.412Z,11.80
2022-10-08T04:39:19.956Z,11.70
2022-10-08T04:41:46.534Z,11.60
2022-10-08T04:44:13.078Z,11.50
2022-10-08T04:46:39.656Z,11.40
2022-10-08T04:49:06.261Z,11.30
2022-10-08T04:51:32.816Z,11.20
2022-10-08T04:53:59.432Z,11.10
2022-10-08T04:56:28.503Z,11.10
2022-10-08T04:58:55.564Z,11.00
2022-10-08T05:01:23.616Z,11.00
2022-10-08T05:03:52.735Z,10.90
2022-10-08T05:06:21.939Z,10.90
2022-10-08T05:08:48.934Z,10.90
2022-10-08T05:11:16.986Z,10.80
2022-10-08T05:13:48.597Z,10.80
2022-10-08T05:16:17.123Z,10.70
2022-10-08T05:18:44.482Z,10.70
2022-10-08T05:21:13.229Z,10.60
2022-10-08T05:23:42.486Z,10.60
2022-10-08T05:26:28.557Z,10.50
2022-10-08T05:29:07.020Z,10.40
2022-10-08T05:31:36.702Z,10.40
2022-10-08T05:34:03.283Z,10.30
2022-10-08T05:36:34.056Z,10.30
2022-10-08T05:39:02.279Z,10.20
2022-10-08T05:41:31.445Z,10.30
2022-10-08T05:43:58.818Z,10.20
2022-10-08T05:46:26.975Z,10.20
2022-10-08T05:48:55.191Z,10.20
2022-10-08T05:51:22.872Z,10.10
2022-10-08T05:53:51.014Z,10.10
2022-10-08T05:56:20.393Z,10.00
2022-10-08T05:58:47.972Z,10.00
2022-10-08T06:01:20.186Z,10.00
2022-10-08T06:03:54.882Z,10.00
2022-10-08T06:06:22.721Z,10.00
2022-10-08T06:09:01.786Z,10.00
2022-10-08T06:11:30.425Z,10.00
2022-10-08T06:13:58.345Z,10.10
2022-10-08T06:16:25.753Z,10.20
2022-10-08T06:18:52.370Z,10.20
2022-10-08T06:21:21.614Z,10.30
2022-10-08T06:23:50.537Z,10.40
2022-10-08T06:26:18.098Z,10.60
2022-10-08T06:28:45.610Z,10.70
2022-10-08T06:31:12.725Z,10.80
2022-10-08T06:33:39.477Z,11.00
2022-10-08T06:36:08.365Z,11.10
2022-10-08T06:38:34.997Z,11.20
2022-10-08T06:41:01.991Z,11.30
2022-10-08T06:43:28.559Z,11.40
2022-10-08T06:45:56.481Z,11.50
2022-10-08T06:48:23.576Z,11.50
2022-10-08T06:51:01.598Z,11.60
2022-10-08T06:53:28.432Z,11.70
2022-10-08T06:56:07.459Z,11.90
2022-10-08T06:58:37.889Z,12.00
2022-10-08T07:01:17.989Z,12.20
2022-10-08T07:03:47.990Z,12.90
2022-10-08T07:06:14.554Z,13.40
2022-10-08T07:08:41.257Z,14.20
2022-10-08T07:11:11.311Z,15.80
2022-10-08T07:13:39.041Z,17.30
2022-10-08T07:16:26.820Z,18.90
2022-10-08T07:18:55.970Z,20.40
2022-10-08T07:21:22.989Z,21.60
2022-10-08T07:23:50.672Z,22.40
2022-10-08T07:26:20.250Z,23.30
2022-10-08T07:28:52.706Z,24.00
2022-10-08T07:31:27.891Z,24.90
2022-10-08T07:33:54.841Z,25.80
2022-10-08T07:36:23.221Z,26.50
2022-10-08T07:39:00.678Z,27.00
2022-10-08T07:41:29.046Z,27.30
2022-10-08T07:44:00.533Z,27.40
2022-10-08T07:46:32.726Z,27.80
2022-10-08T07:49:01.348Z,28.10
2022-10-08T07:51:29.927Z,28.50
2022-10-08T07:54:01.567Z,28.60
2022-10-08T07:56:30.208Z,28.70
2022-10-08T07:58:57.800Z,29.10
2022-10-08T08:01:29.616Z,29.60
2022-10-08T08:03:59.558Z,29.80
2022-10-08T08:06:26.585Z,30.10
2022-10-08T08:08:53.580Z,30.30
2022-10-08T08:11:22.741Z,30.50
2022-10-08T08:13:49.497Z,30.60
2022-10-08T08:16:18.970Z,30.70
2022-10-08T08:18:48.354Z,31.00
2022-10-08T08:21:17.862Z,31.10
2022-10-08T08:23:50.127Z,30.70
2022-10-08T08:26:24.484Z,31.10
2022-10-08T08:28:59.657Z,31.50
2022-10-08T08:31:28.938Z,30.50
2022-10-08T08:34:01.081Z,28.20
2022-10-08T08:36:30.523Z,25.60
2022-10-08T08:38:57.505Z,24.40
2022-10-08T08:41:35.972Z,25.20
2022-10-08T08:44:10.216Z,26.70
2022-10-08T08:46:41.028Z,27.80
2022-10-08T08:49:21.537Z,29.10
2022-10-08T08:51:48.203Z,29.40
2022-10-08T08:54:14.868Z,29.80
2022-10-08T08:56:41.850Z,30.10
2022-10-08T08:59:23.292Z,29.80
2022-10-08T09:01:51.035Z,29.30
2022-10-08T09:04:36.160Z,28.00
2022-10-08T09:07:07.893Z,26.10
2022-10-08T09:09:42.185Z,24.20
2022-10-08T09:12:37.083Z,22.40
2022-10-08T09:15:19.243Z,20.90
2022-10-08T09:17:48.767Z,19.80
2022-10-08T09:20:17.943Z,19.20
2022-10-08T09:22:45.683Z,18.60
2022-10-08T09:25:20.759Z,18.40
2022-10-08T09:27:58.504Z,18.40
2022-10-08T09:30:25.049Z,19.20
2022-10-08T09:32:54.556Z,21.90
2022-10-08T09:35:22.500Z,24.00
2022-10-08T09:37:51.116Z,25.10
2022-10-08T09:40:26.392Z,26.30
2022-10-08T09:43:23.414Z,26.60
2022-10-08T09:45:50.314Z,26.60
2022-10-08T09:48:23.130Z,25.70
2022-10-08T09:51:07.177Z,24.00
2022-10-08T09:53:39.820Z,22.70
2022-10-08T09:56:07.888Z,23.70
2022-10-08T09:58:54.865Z,24.00
2022-10-08T10:01:21.989Z,23.80
2022-10-08T10:04:02.475Z,24.30
2022-10-08T10:06:34.890Z,23.10
2022-10-08T10:09:38.237Z,22.50
2022-10-08T10:12:26.514Z,24.20
2022-10-08T10:15:10.867Z,26.30
2022-10-08T10:17:37.478Z,28.20
2022-10-08T10:20:14.188Z,29.10
2022-10-08T10:22:58.568Z,29.90
2022-10-08T10:25:58.012Z,30.20
2022-10-08T10:28:46.603Z,29.10
2022-10-08T10:31:46.905Z,27.60
2022-10-08T10:34:15.994Z,26.10
2022-10-08T10:36:51.913Z,24.90
2022-10-08T10:39:34.076Z,23.50
2022-10-08T10:42:24.297Z,22.80
2022-10-08T10:44:57.594Z,24.00
2022-10-08T10:47:32.034Z,25.80
2022-10-08T10:50:00.776Z,27.00
2022-10-08T10:52:49.400Z,27.20
2022-10-08T10:55:18.530Z,25.90
2022-10-08T10:58:06.240Z,24.10
2022-10-08T11:00:42.670Z,22.70
2022-10-08T11:03:28.040Z,21.60
2022-10-08T11:06:32.210Z,21.10
2022-10-08T11:09:04.630Z,21.70
2022-10-08T11:11:43.146Z,24.00
2022-10-08T11:14:34.406Z,26.00
2022-10-08T11:17:22.289Z,28.40
2022-10-08T11:19:57.347Z,30.00
2022-10-08T11:22:23.905Z,30.70
2022-10-08T11:25:06.373Z,31.00
2022-10-08T11:27:37.205Z,31.20
2022-10-08T11:30:14.868Z,31.10
2022-10-08T11:32:44.632Z,30.30
2022-10-08T11:35:29.339Z,30.20
2022-10-08T11:38:04.375Z,30.00
2022-10-08T11:40:44.483Z,30.20
2022-10-08T11:43:17.658Z,29.90
2022-10-08T11:45:46.083Z,29.90
2022-10-08T11:48:33.004Z,30.60
2022-10-08T11:51:37.544Z,31.80
2022-10-08T11:54:10.076Z,31.00
2022-10-08T11:56:40.400Z,29.00
2022-10-08T11:59:33.509Z,26.40
2022-10-08T12:02:03.318Z,23.80
2022-10-08T12:04:34.845Z,22.00
2022-10-08T12:07:03.339Z,20.70
2022-10-08T12:10:02.154Z,21.10
2022-10-08T12:12:50.948Z,22.80
2022-10-08T12:15:23.690Z,24.90
2022-10-08T12:18:26.435Z,26.30
2022-10-08T12:21:16.752Z,28.10
2022-10-08T12:23:44.491Z,28.80
2022-10-08T12:26:13.120Z,29.50
2022-10-08T12:28:42.830Z,29.80
2022-10-08T12:31:18.041Z,30.10
2022-10-08T12:33:56.305Z,30.20
2022-10-08T12:37:02.012Z,30.70
2022-10-08T12:39:37.958Z,30.60
2022-10-08T12:42:14.235Z,31.00
2022-10-08T12:44:51.135Z,31.70
2022-10-08T12:47:25.030Z,31.60
2022-10-08T12:50:13.477Z,31.30
2022-10-08T12:52:40.117Z,31.40
2022-10-08T12:55:15.010Z,30.40
2022-10-08T12:57:42.538Z,28.70
2022-10-08T13:00:28.840Z,26.60
2022-10-08T13:03:01.683Z,24.90
2022-10-08T13:05:37.040Z,24.30
2022-10-08T13:08:34.705Z,24.40
2022-10-08T13:11:09.358Z,24.70
2022-10-08T13:13:39.055Z,25.00
2022-10-08T13:16:14.665Z,25.70
2022-10-08T13:18:44.486Z,25.90
2022-10-08T13:21:32.771Z,25.00
2022-10-08T13:24:01.801Z,23.90
2022-10-08T13:26:49.648Z,23.50
2022-10-08T13:29:22.547Z,22.90
2022-10-08T13:32:12.282Z,22.70
2022-10-08T13:34:54.825Z,23.30
2022-10-08T13:37:21.329Z,24.30
2022-10-08T13:39:56.744Z,25.10
2022-10-08T13:42:50.759Z,25.50
2022-10-08T13:45:20.313Z,25.30
2022-10-08T13:47:47.458Z,24.80
2022-10-08T13:50:14.726Z,24.20
2022-10-08T13:52:45.126Z,23.30
2022-10-08T13:55:31.892Z,23.30
2022-10-08T13:58:01.829Z,23.90
2022-10-08T14:00:33.599Z,24.20
2022-10-08T14:03:00.185Z,24.10
2022-10-08T14:05:29.760Z,24.10
2022-10-08T14:07:59.640Z,24.60
2022-10-08T14:10:26.917Z,24.50
2022-10-08T14:12:53.633Z,23.70
2022-10-08T14:15:20.474Z,22.70
2022-10-08T14:17:49.444Z,22.00
2022-10-08T14:20:16.606Z,21.60
2022-10-08T14:22:43.194Z,21.80
2022-10-08T14:25:18.390Z,22.40
2022-10-08T14:27:45.522Z,22.70
2022-10-08T14:30:13.330Z,22.50
2022-10-08T14:32:39.916Z,21.90
2022-10-08T14:35:06.763Z,21.10
2022-10-08T14:37:34.848Z,20.20
2022-10-08T14:40:02.114Z,19.40
2022-10-08T14:42:28.659Z,18.70
2022-10-08T14:44:55.434Z,18.20
2022-10-08T14:47:21.958Z,17.80
2022-10-08T14:49:48.484Z,17.60
2022-10-08T14:52:15.029Z,17.40
2022-10-08T14:54:41.616Z,17.10
2022-10-08T14:57:08.179Z,16.80
2022-10-08T14:59:39.778Z,16.40
2022-10-08T15:02:08.824Z,16.10
2022-10-08T15:04:35.395Z,15.80
2022-10-08T15:07:01.948Z,15.60
2022-10-08T15:09:28.613Z,15.60
2022-10-08T15:11:55.137Z,15.60
2022-10-08T15:14:21.701Z,15.70
2022-10-08T15:16:48.423Z,15.80
2022-10-08T15:19:16.240Z,15.80
2022-10-08T15:21:45.208Z,15.80
2022-10-08T15:24:11.782Z,15.50
2022-10-08T15:26:38.506Z,15.30
2022-10-08T15:29:05.126Z,15.10
2022-10-08T15:31:31.729Z,14.80
2022-10-08T15:34:01.702Z,14.60
2022-10-08T15:36:31.246Z,14.40
2022-10-08T15:39:07.486Z,14.20
2022-10-08T15:41:35.854Z,14.10
2022-10-08T15:44:10.968Z,13.90
2022-10-08T15:46:37.886Z,13.70
2022-10-08T15:49:05.176Z,13.50
2022-10-08T15:51:33.585Z,13.40
2022-10-08T15:54:00.930Z,13.30
2022-10-08T15:56:28.333Z,13.20
2022-10-08T15:58:54.974Z,13.10
2022-10-08T16:01:23.719Z,13.10
2022-10-08T16:03:52.755Z,13.10
2022-10-08T16:06:22.087Z,13.10
2022-10-08T16:08:48.997Z,13.20
2022-10-08T16:11:18.314Z,13.20
2022-10-08T16:13:47.545Z,13.20
2022-10-08T16:16:16.967Z,13.20
2022-10-08T16:18:45.293Z,13.30
2022-10-08T16:21:13.160Z,13.30
2022-10-08T16:23:40.336Z,13.30
2022-10-08T16:26:09.127Z,13.30
2022-10-08T16:28:38.392Z,13.30
2022-10-08T16:31:06.181Z,13.20
2022-10-08T16:33:33.513Z,13.10
2022-10-08T16:36:08.886Z,13.10
2022-10-08T16:38:38.529Z,13.00
2022-10-08T16:41:19.991Z,12.90
2022-10-08T16:43:49.538Z,12.70
2022-10-08T16:46:20.759Z,12.60
2022-10-08T16:49:16.438Z,12.50
2022-10-08T16:51:46.870Z,12.30
2022-10-08T16:54:16.125Z,12.20
2022-10-08T16:56:44.745Z,12.10
2022-10-08T16:59:15.344Z,12.00
2022-10-08T17:01:47.694Z,11.90
2022-10-08T17:04:16.081Z,11.90
2022-10-08T17:06:43.194Z,11.80
2022-10-08T17:09:11.462Z,11.70
2022-10-08T17:11:39.166Z,11.70
2022-10-08T17:14:07.477Z,11.50
2022-10-08T17:16:35.272Z,11.40
2022-10-08T17:19:02.413Z,11.30
2022-10-08T17:21:29.881Z,11.20
2022-10-08T17:23:59.894Z,11.20
2022-10-08T17:26:27.786Z,11.10
2022-10-08T17:28:54.987Z,11.10
2022-10-08T17:31:27.115Z,11.00
2022-10-08T17:33:53.832Z,11.00
2022-10-08T17:36:26.786Z,11.00
2022-10-08T17:38:59.543Z,11.00
2022-10-08T17:41:28.058Z,10.90
2022-10-08T17:43:56.389Z,10.90
2022-10-08T17:46:31.868Z,10.80
2022-10-08T17:48:59.060Z,10.80
2022-10-08T17:51:28.002Z,10.80
2022-10-08T17:53:56.862Z,10.80
2022-10-08T17:56:24.014Z,10.80
2022-10-08T17:58:51.021Z,10.80
2022-10-08T18:01:26.904Z,10.80
2022-10-08T18:03:56.689Z,10.70
2022-10-08T18:06:25.529Z,10.70
2022-10-08T18:09:00.113Z,10.70
2022-10-08T18:11:28.426Z,10.70
2022-10-08T18:13:55.096Z,10.60
2022-10-08T18:16:23.107Z,10.60
2022-10-08T18:18:49.716Z,10.50
2022-10-08T18:21:18.569Z,10.50
2022-10-08T18:23:48.545Z,10.40
2022-10-08T18:26:22.795Z,10.40
2022-10-08T18:28:55.003Z,10.30
2022-10-08T18:31:23.861Z,10.30
2022-10-08T18:33:55.001Z,10.20
2022-10-08T18:36:24.179Z,10.10
2022-10-08T18:39:09.892Z,10.10
2022-10-08T18:41:40.972Z,10.10
2022-10-08T18:44:14.488Z,10.00
2022-10-08T18:46:44.369Z,10.00
2022-10-08T18:49:17.130Z,9.90
2022-10-08T18:51:44.377Z,9.80
2022-10-08T18:54:11.537Z,9.90
2022-10-08T18:56:40.666Z,9.80
2022-10-08T18:59:11.505Z,9.80
2022-10-08T19:01:40.691Z,9.80
2022-10-08T19:04:11.739Z,9.80
2022-10-08T19:06:41.777Z,9.80
2022-10-08T19:09:09.244Z,9.80
2022-10-08T19:11:45.307Z,9.70
2022-10-08T19:14:14.523Z,9.80
2022-10-08T19:16:41.333Z,9.70
2022-10-08T19:19:12.364Z,9.70
2022-10-08T19:21:39.242Z,9.60
2022-10-08T19:24:08.031Z,9.60
2022-10-08T19:26:34.914Z,9.50
2022-10-08T19:29:01.698Z,9.50
2022-10-08T19:31:31.348Z,9.50
2022-10-08T19:34:06.714Z,9.40
2022-10-08T19:36:38.344Z,9.40
2022-10-08T19:39:09.464Z,9.30
2022-10-08T19:41:36.680Z,9.30
2022-10-08T19:44:04.258Z,9.30
2022-10-08T19:46:31.332Z,9.20
2022-10-08T19:49:01.453Z,9.20
2022-10-08T19:51:29.538Z,9.10
2022-10-08T19:53:57.335Z,9.10
2022-10-08T19:56:24.029Z,9.10
2022-10-08T19:58:55.286Z,9.10
2022-10-08T20:01:33.838Z,9.10
2022-10-08T20:04:03.718Z,9.10
2022-10-08T20:06:31.720Z,9.10
2022-10-08T20:09:01.357Z,9.00
2022-10-08T20:11:30.106Z,9.10
2022-10-08T20:13:57.326Z,9.00
2022-10-08T20:16:27.783Z,9.00
2022-10-08T20:19:00.193Z,8.90
2022-10-08T20:21:28.635Z,8.90
2022-10-08T20:23:55.213Z,8.90
2022-10-08T20:26:24.745Z,8.80
2022-10-08T20:28:54.507Z,8.80
2022-10-08T20:31:24.350Z,8.70
2022-10-08T20:34:10.061Z,8.70
2022-10-08T20:36:36.869Z,8.70
2022-10-08T20:39:03.727Z,8.60
2022-10-08T20:41:31.225Z,8.60
2022-10-08T20:44:02.812Z,8.60
2022-10-08T20:46:30.031Z,8.60
2022-10-08T20:48:56.899Z,8.60
2022-10-08T20:51:27.788Z,8.50
2022-10-08T20:53:55.497Z,8.50
2022-10-08T20:56:23.268Z,8.50
2022-10-08T20:58:50.386Z,8.40
2022-10-08T21:01:20.182Z,8.50
2022-10-08T21:03:47.342Z,8.40
2022-10-08T21:06:16.881Z,8.40
2022-10-08T21:08:45.585Z,8.40
2022-10-08T21:11:18.124Z,8.30
2022-10-08T21:13:45.252Z,8.30
2022-10-08T21:16:20.210Z,8.30
2022-10-08T21:18:51.708Z,8.30
2022-10-08T21:21:19.409Z,8.30
2022-10-08T21:23:47.371Z,8.30
2022-10-08T21:26:22.381Z,8.20
2022-10-08T21:28:51.100Z,8.20
2022-10-08T21:31:19.518Z,8.20
2022-10-08T21:33:48.977Z,8.20
2022-10-08T21:36:24.901Z,8.20
2022-10-08T21:38:51.661Z,8.20
2022-10-08T21:41:20.158Z,8.20
2022-10-08T21:43:52.536Z,8.10
2022-10-08T21:46:24.614Z,8.10
2022-10-08T21:48:57.354Z,8.10
2022-10-08T21:51:24.652Z,8.00
2022-10-08T21:53:57.712Z,8.00
2022-10-08T21:56:27.418Z,7.90
2022-10-08T21:58:55.998Z,7.90
2022-10-08T22:01:36.746Z,7.90
2022-10-08T22:04:15.126Z,7.90
2022-10-08T22:06:44.444Z,7.90
2022-10-08T22:09:14.112Z,7.80
2022-10-08T22:11:41.505Z,7.80
2022-10-08T22:14:08.645Z,7.80
2022-10-08T22:16:35.468Z,7.70
2022-10-08T22:19:02.076Z,7.70
2022-10-08T22:21:28.694Z,7.70
2022-10-08T22:23:55.552Z,7.70
2022-10-08T22:26:27.716Z,7.70
2022-10-08T22:28:54.364Z,7.70
2022-10-08T22:31:21.399Z,7.70
2022-10-08T22:33:48.732Z,7.60
2022-10-08T22:36:21.940Z,7.60
2022-10-08T22:38:49.335Z,7.60
2022-10-08T22:41:19.201Z,7.60
2022-10-08T22:43:46.385Z,7.50
2022-10-08T22:46:18.811Z,7.50
2022-10-08T22:48:46.011Z,7.50
2022-10-08T22:51:15.007Z,7.40
2022-10-08T22:53:41.958Z,7.50
2022-10-08T22:56:12.654Z,7.40
2022-10-08T22:58:39.637Z,7.40
2022-10-08T23:01:08.826Z,7.40
2022-10-08T23:03:36.564Z,7.30
2022-10-08T23:06:27.352Z,7.30
2022-10-08T23:09:06.397Z,7.30
2022-10-08T23:11:34.066Z,7.30
2022-10-08T23:14:01.544Z,7.20
2022-10-08T23:16:29.950Z,7.20
2022-10-08T23:18:59.237Z,7.20
2022-10-08T23:21:26.346Z,7.20
2022-10-08T23:23:53.941Z,7.20
2022-10-08T23:26:21.403Z,7.10
2022-10-08T23:28:52.972Z,7.10
2022-10-08T23:31:26.468Z,7.10
2022-10-08T23:33:54.213Z,7.10
2022-10-08T23:36:27.596Z,7.10
2022-10-08T23:38:55.480Z,7.10
2022-10-08T23:41:22.729Z,7.10
2022-10-08T23:43:50.542Z,7.10
2022-10-08T23:46:20.109Z,7.00
2022-10-08T23:48:47.130Z,7.00
2022-10-08T23:51:15.087Z,7.00
2022-10-08T23:53:42.889Z,7.00
2022-10-08T23:56:10.638Z,7.00
2022-10-08T23:58:37.689Z,7.00
